sensor_id;sensor_type;location;lat;lon;timestamp;temperature;humidity
51765;DHT22;37835;53.256;6.456;2023-08-06T00:02:05;14.30;99.90
51765;DHT22;37835;53.256;6.456;2023-08-06T00:04:30;14.30;99.90
51765;DHT22;37835;53.256;6.456;2023-08-06T00:06:56;14.20;99.90
51765;DHT22;37835;53.256;6.456;2023-08-06T00:09:21;14.20;99.90
51765;DHT22;37835;53.256;6.456;2023-08-06T00:11:47;14.20;99.90
51765;DHT22;37835;53.256;6.456;2023-08-06T00:14:13;14.20;99.90
51765;DHT22;37835;53.256;6.456;2023-08-06T00:16:43;14.20;99.90
51765;DHT22;37835;53.256;6.456;2023-08-06T00:19:08;14.20;99.90
51765;DHT22;37835;53.256;6.456;2023-08-06T00:21:34;14.20;99.90
51765;DHT22;37835;53.256;6.456;2023-08-06T00:24:00;14.20;99.90
51765;DHT22;37835;53.256;6.456;2023-08-06T00:26:25;14.20;99.90
51765;DHT22;37835;53.256;6.456;2023-08-06T00:28:51;14.20;99.90
51765;DHT22;37835;53.256;6.456;2023-08-06T00:31:17;14.20;99.90
51765;DHT22;37835;53.256;6.456;2023-08-06T00:33:42;14.20;99.90
51765;DHT22;37835;53.256;6.456;2023-08-06T00:36:08;14.20;99.90
51765;DHT22;37835;53.256;6.456;2023-08-06T00:38:33;14.20;99.90
51765;DHT22;37835;53.256;6.456;2023-08-06T00:40:59;14.20;99.90
51765;DHT22;37835;53.256;6.456;2023-08-06T00:43:24;14.20;99.90
51765;DHT22;37835;53.256;6.456;2023-08-06T00:45:50;14.20;99.90
51765;DHT22;37835;53.256;6.456;2023-08-06T00:48:16;14.20;99.90
51765;DHT22;37835;53.256;6.456;2023-08-06T00:50:42;14.20;99.90
51765;DHT22;37835;53.256;6.456;2023-08-06T00:53:08;14.20;99.90
51765;DHT22;37835;53.256;6.456;2023-08-06T00:55:34;14.20;99.90
51765;DHT22;37835;53.256;6.456;2023-08-06T00:58:00;14.20;99.90
51765;DHT22;37835;53.256;6.456;2023-08-06T01:00:26;14.20;99.90
51765;DHT22;37835;53.256;6.456;2023-08-06T01:02:53;14.20;99.90
51765;DHT22;37835;53.256;6.456;2023-08-06T01:05:20;14.20;99.90
51765;DHT22;37835;53.256;6.456;2023-08-06T01:11:14;14.20;99.90
51765;DHT22;37835;53.256;6.456;2023-08-06T01:13:47;14.20;99.90
51765;DHT22;37835;53.256;6.456;2023-08-06T01:16:16;14.20;99.90
51765;DHT22;37835;53.256;6.456;2023-08-06T01:18:42;14.20;99.90
51765;DHT22;37835;53.256;6.456;2023-08-06T01:21:14;14.20;99.90
51765;DHT22;37835;53.256;6.456;2023-08-06T01:23:41;14.20;99.90
51765;DHT22;37835;53.256;6.456;2023-08-06T01:26:32;14.20;99.90
51765;DHT22;37835;53.256;6.456;2023-08-06T01:29:06;14.20;99.90
51765;DHT22;37835;53.256;6.456;2023-08-06T01:31:37;14.20;99.90
51765;DHT22;37835;53.256;6.456;2023-08-06T01:34:05;14.20;99.90
51765;DHT22;37835;53.256;6.456;2023-08-06T01:36:31;14.20;99.90
51765;DHT22;37835;53.256;6.456;2023-08-06T01:38:57;14.10;99.90
51765;DHT22;37835;53.256;6.456;2023-08-06T01:41:23;14.10;99.90
51765;DHT22;37835;53.256;6.456;2023-08-06T01:43:48;14.10;99.90
51765;DHT22;37835;53.256;6.456;2023-08-06T01:46:14;14.10;99.90
51765;DHT22;37835;53.256;6.456;2023-08-06T01:48:40;14.10;99.90
51765;DHT22;37835;53.256;6.456;2023-08-06T01:51:05;14.10;99.90
51765;DHT22;37835;53.256;6.456;2023-08-06T01:53:32;14.10;99.90
51765;DHT22;37835;53.256;6.456;2023-08-06T01:55:57;14.10;99.90
51765;DHT22;37835;53.256;6.456;2023-08-06T01:58:23;14.10;99.90
51765;DHT22;37835;53.256;6.456;2023-08-06T02:00:49;14.10;99.90
51765;DHT22;37835;53.256;6.456;2023-08-06T02:03:15;14.10;99.90
51765;DHT22;37835;53.256;6.456;2023-08-06T02:05:41;14.10;99.90
51765;DHT22;37835;53.256;6.456;2023-08-06T02:08:06;14.10;99.90
51765;DHT22;37835;53.256;6.456;2023-08-06T02:10:32;14.10;99.90
51765;DHT22;37835;53.256;6.456;2023-08-06T02:12:58;14.10;99.90
51765;DHT22;37835;53.256;6.456;2023-08-06T02:15:23;14.10;99.90
51765;DHT22;37835;53.256;6.456;2023-08-06T02:17:49;14.10;99.90
51765;DHT22;37835;53.256;6.456;2023-08-06T02:20:14;14.10;99.90
51765;DHT22;37835;53.256;6.456;2023-08-06T02:22:40;14.10;99.90
51765;DHT22;37835;53.256;6.456;2023-08-06T02:25:06;14.10;99.90
51765;DHT22;37835;53.256;6.456;2023-08-06T02:27:31;14.10;99.90
51765;DHT22;37835;53.256;6.456;2023-08-06T02:29:57;14.10;99.90
51765;DHT22;37835;53.256;6.456;2023-08-06T02:32:22;14.10;99.90
51765;DHT22;37835;53.256;6.456;2023-08-06T02:34:48;14.10;99.90
51765;DHT22;37835;53.256;6.456;2023-08-06T02:37:13;14.10;99.90
51765;DHT22;37835;53.256;6.456;2023-08-06T02:39:39;14.10;99.90
51765;DHT22;37835;53.256;6.456;2023-08-06T02:42:08;14.10;99.90
51765;DHT22;37835;53.256;6.456;2023-08-06T02:44:35;14.10;99.90
51765;DHT22;37835;53.256;6.456;2023-08-06T02:47:01;14.10;99.90
51765;DHT22;37835;53.256;6.456;2023-08-06T02:49:26;14.10;99.90
51765;DHT22;37835;53.256;6.456;2023-08-06T02:51:52;14.10;99.90
51765;DHT22;37835;53.256;6.456;2023-08-06T02:54:18;14.10;99.90
51765;DHT22;37835;53.256;6.456;2023-08-06T02:56:44;14.10;99.90
51765;DHT22;37835;53.256;6.456;2023-08-06T02:59:10;14.10;99.90
51765;DHT22;37835;53.256;6.456;2023-08-06T03:01:36;14.10;99.90
51765;DHT22;37835;53.256;6.456;2023-08-06T03:04:02;14.20;99.90
51765;DHT22;37835;53.256;6.456;2023-08-06T03:06:28;14.20;99.90
51765;DHT22;37835;53.256;6.456;2023-08-06T03:08:53;14.20;99.90
51765;DHT22;37835;53.256;6.456;2023-08-06T03:11:19;14.10;99.90
51765;DHT22;37835;53.256;6.456;2023-08-06T03:13:44;14.10;99.90
51765;DHT22;37835;53.256;6.456;2023-08-06T03:16:10;14.10;99.90
51765;DHT22;37835;53.256;6.456;2023-08-06T03:18:35;14.10;99.90
51765;DHT22;37835;53.256;6.456;2023-08-06T03:21:01;14.10;99.90
51765;DHT22;37835;53.256;6.456;2023-08-06T03:23:27;14.20;99.90
51765;DHT22;37835;53.256;6.456;2023-08-06T03:25:52;14.20;99.90
51765;DHT22;37835;53.256;6.456;2023-08-06T03:28:18;14.20;99.90
51765;DHT22;37835;53.256;6.456;2023-08-06T03:30:43;14.20;99.90
51765;DHT22;37835;53.256;6.456;2023-08-06T03:33:09;14.20;99.90
51765;DHT22;37835;53.256;6.456;2023-08-06T03:35:35;14.20;99.90
51765;DHT22;37835;53.256;6.456;2023-08-06T03:38:00;14.20;99.90
51765;DHT22;37835;53.256;6.456;2023-08-06T03:40:26;14.20;99.90
51765;DHT22;37835;53.256;6.456;2023-08-06T03:42:52;14.20;99.90
51765;DHT22;37835;53.256;6.456;2023-08-06T03:45:17;14.20;99.90
51765;DHT22;37835;53.256;6.456;2023-08-06T03:47:43;14.20;99.90
51765;DHT22;37835;53.256;6.456;2023-08-06T03:50:09;14.20;99.90
51765;DHT22;37835;53.256;6.456;2023-08-06T03:52:34;14.20;99.90
51765;DHT22;37835;53.256;6.456;2023-08-06T03:55:00;14.20;99.90
51765;DHT22;37835;53.256;6.456;2023-08-06T03:57:25;14.20;99.90
51765;DHT22;37835;53.256;6.456;2023-08-06T03:59:51;14.20;99.90
51765;DHT22;37835;53.256;6.456;2023-08-06T04:02:16;14.30;99.90
51765;DHT22;37835;53.256;6.456;2023-08-06T04:04:42;14.20;99.90
51765;DHT22;37835;53.256;6.456;2023-08-06T04:07:08;14.20;99.90
51765;DHT22;37835;53.256;6.456;2023-08-06T04:09:33;14.20;99.90
51765;DHT22;37835;53.256;6.456;2023-08-06T04:11:59;14.20;99.90
51765;DHT22;37835;53.256;6.456;2023-08-06T04:14:27;14.30;99.90
51765;DHT22;37835;53.256;6.456;2023-08-06T04:16:53;14.20;99.90
51765;DHT22;37835;53.256;6.456;2023-08-06T04:19:18;14.20;99.90
51765;DHT22;37835;53.256;6.456;2023-08-06T04:21:44;14.20;99.90
51765;DHT22;37835;53.256;6.456;2023-08-06T04:24:09;14.20;99.90
51765;DHT22;37835;53.256;6.456;2023-08-06T04:26:35;14.20;99.90
51765;DHT22;37835;53.256;6.456;2023-08-06T04:29:00;14.20;99.90
51765;DHT22;37835;53.256;6.456;2023-08-06T04:31:26;14.20;99.90
51765;DHT22;37835;53.256;6.456;2023-08-06T04:33:52;14.20;99.90
51765;DHT22;37835;53.256;6.456;2023-08-06T04:36:17;14.20;99.90
51765;DHT22;37835;53.256;6.456;2023-08-06T04:38:43;14.20;99.90
51765;DHT22;37835;53.256;6.456;2023-08-06T04:41:11;14.20;99.90
51765;DHT22;37835;53.256;6.456;2023-08-06T04:43:37;14.20;99.90
51765;DHT22;37835;53.256;6.456;2023-08-06T04:46:02;14.20;99.90
51765;DHT22;37835;53.256;6.456;2023-08-06T04:48:28;14.20;99.90
51765;DHT22;37835;53.256;6.456;2023-08-06T04:50:53;14.20;99.90
51765;DHT22;37835;53.256;6.456;2023-08-06T04:53:20;14.30;99.90
51765;DHT22;37835;53.256;6.456;2023-08-06T04:55:45;14.20;99.90
51765;DHT22;37835;53.256;6.456;2023-08-06T04:58:11;14.30;99.90
51765;DHT22;37835;53.256;6.456;2023-08-06T05:00:37;14.30;99.90
51765;DHT22;37835;53.256;6.456;2023-08-06T05:03:03;14.30;99.90
51765;DHT22;37835;53.256;6.456;2023-08-06T05:05:29;14.30;99.90
51765;DHT22;37835;53.256;6.456;2023-08-06T05:07:56;14.30;99.90
51765;DHT22;37835;53.256;6.456;2023-08-06T05:10:24;14.30;99.90
51765;DHT22;37835;53.256;6.456;2023-08-06T05:12:50;14.30;99.90
51765;DHT22;37835;53.256;6.456;2023-08-06T05:15:15;14.30;99.90
51765;DHT22;37835;53.256;6.456;2023-08-06T05:17:41;14.30;99.90
51765;DHT22;37835;53.256;6.456;2023-08-06T05:20:07;14.30;99.90
51765;DHT22;37835;53.256;6.456;2023-08-06T05:22:32;14.30;99.90
51765;DHT22;37835;53.256;6.456;2023-08-06T05:24:58;14.30;99.90
51765;DHT22;37835;53.256;6.456;2023-08-06T05:27:24;14.30;99.90
51765;DHT22;37835;53.256;6.456;2023-08-06T05:29:49;14.40;99.90
51765;DHT22;37835;53.256;6.456;2023-08-06T05:32:15;14.40;99.90
51765;DHT22;37835;53.256;6.456;2023-08-06T05:34:40;14.40;99.90
51765;DHT22;37835;53.256;6.456;2023-08-06T05:37:07;14.40;99.90
51765;DHT22;37835;53.256;6.456;2023-08-06T05:39:32;14.40;99.90
51765;DHT22;37835;53.256;6.456;2023-08-06T05:41:58;14.40;99.90
51765;DHT22;37835;53.256;6.456;2023-08-06T05:44:23;14.40;99.90
51765;DHT22;37835;53.256;6.456;2023-08-06T05:46:49;14.40;99.90
51765;DHT22;37835;53.256;6.456;2023-08-06T05:49:15;14.40;99.90
51765;DHT22;37835;53.256;6.456;2023-08-06T05:51:41;14.40;99.90
51765;DHT22;37835;53.256;6.456;2023-08-06T05:54:07;14.50;99.90
51765;DHT22;37835;53.256;6.456;2023-08-06T05:56:33;14.50;99.90
51765;DHT22;37835;53.256;6.456;2023-08-06T05:58:58;14.50;99.90
51765;DHT22;37835;53.256;6.456;2023-08-06T06:01:24;14.50;99.90
51765;DHT22;37835;53.256;6.456;2023-08-06T06:03:50;14.50;99.90
51765;DHT22;37835;53.256;6.456;2023-08-06T06:06:15;14.50;99.90
51765;DHT22;37835;53.256;6.456;2023-08-06T06:08:42;14.50;99.90
51765;DHT22;37835;53.256;6.456;2023-08-06T06:11:07;14.50;99.90
51765;DHT22;37835;53.256;6.456;2023-08-06T06:13:33;14.60;99.90
51765;DHT22;37835;53.256;6.456;2023-08-06T06:15:58;14.60;99.90
51765;DHT22;37835;53.256;6.456;2023-08-06T06:18:24;14.60;99.90
51765;DHT22;37835;53.256;6.456;2023-08-06T06:20:49;14.60;99.90
51765;DHT22;37835;53.256;6.456;2023-08-06T06:23:16;14.70;99.90
51765;DHT22;37835;53.256;6.456;2023-08-06T06:25:48;14.70;99.90
51765;DHT22;37835;53.256;6.456;2023-08-06T06:30:41;14.80;99.90
51765;DHT22;37835;53.256;6.456;2023-08-06T06:33:07;14.80;99.90
51765;DHT22;37835;53.256;6.456;2023-08-06T06:35:33;14.80;99.90
51765;DHT22;37835;53.256;6.456;2023-08-06T06:37:59;14.90;99.90
51765;DHT22;37835;53.256;6.456;2023-08-06T06:40:25;14.90;99.90
51765;DHT22;37835;53.256;6.456;2023-08-06T06:42:51;14.90;99.90
51765;DHT22;37835;53.256;6.456;2023-08-06T06:45:16;15.00;99.90
51765;DHT22;37835;53.256;6.456;2023-08-06T06:47:42;15.00;99.90
51765;DHT22;37835;53.256;6.456;2023-08-06T06:50:08;15.10;99.90
51765;DHT22;37835;53.256;6.456;2023-08-06T06:52:33;15.10;99.90
51765;DHT22;37835;53.256;6.456;2023-08-06T06:54:59;15.20;99.90
51765;DHT22;37835;53.256;6.456;2023-08-06T06:57:25;15.20;99.90
51765;DHT22;37835;53.256;6.456;2023-08-06T06:59:50;15.20;99.90
51765;DHT22;37835;53.256;6.456;2023-08-06T07:02:16;15.30;99.90
51765;DHT22;37835;53.256;6.456;2023-08-06T07:04:41;15.40;99.90
51765;DHT22;37835;53.256;6.456;2023-08-06T07:07:07;15.40;99.90
51765;DHT22;37835;53.256;6.456;2023-08-06T07:09:32;15.50;99.90
51765;DHT22;37835;53.256;6.456;2023-08-06T07:11:59;15.50;99.90
51765;DHT22;37835;53.256;6.456;2023-08-06T07:14:25;15.60;99.90
51765;DHT22;37835;53.256;6.456;2023-08-06T07:16:51;15.70;99.90
51765;DHT22;37835;53.256;6.456;2023-08-06T07:19:17;15.70;99.90
51765;DHT22;37835;53.256;6.456;2023-08-06T07:21:42;15.80;99.90
51765;DHT22;37835;53.256;6.456;2023-08-06T07:24:08;15.90;99.90
51765;DHT22;37835;53.256;6.456;2023-08-06T07:26:33;16.00;99.90
51765;DHT22;37835;53.256;6.456;2023-08-06T07:28:59;16.10;99.90
51765;DHT22;37835;53.256;6.456;2023-08-06T07:31:25;16.20;99.90
51765;DHT22;37835;53.256;6.456;2023-08-06T07:33:51;16.20;99.90
51765;DHT22;37835;53.256;6.456;2023-08-06T07:36:16;16.40;99.90
51765;DHT22;37835;53.256;6.456;2023-08-06T07:38:42;16.40;99.90
51765;DHT22;37835;53.256;6.456;2023-08-06T07:41:08;16.50;99.90
51765;DHT22;37835;53.256;6.456;2023-08-06T07:43:34;16.60;99.90
51765;DHT22;37835;53.256;6.456;2023-08-06T07:46:01;16.70;99.90
51765;DHT22;37835;53.256;6.456;2023-08-06T07:48:27;16.70;99.90
51765;DHT22;37835;53.256;6.456;2023-08-06T07:50:54;16.80;99.90
51765;DHT22;37835;53.256;6.456;2023-08-06T07:53:24;16.90;99.90
51765;DHT22;37835;53.256;6.456;2023-08-06T07:55:53;17.00;99.90
51765;DHT22;37835;53.256;6.456;2023-08-06T07:58:20;17.00;99.90
51765;DHT22;37835;53.256;6.456;2023-08-06T08:00:46;17.10;99.90
51765;DHT22;37835;53.256;6.456;2023-08-06T08:03:15;17.10;99.90
51765;DHT22;37835;53.256;6.456;2023-08-06T08:05:42;17.20;99.90
51765;DHT22;37835;53.256;6.456;2023-08-06T08:08:08;17.30;99.90
51765;DHT22;37835;53.256;6.456;2023-08-06T08:10:34;17.30;99.90
51765;DHT22;37835;53.256;6.456;2023-08-06T08:13:03;17.30;99.90
51765;DHT22;37835;53.256;6.456;2023-08-06T08:15:30;17.40;99.90
51765;DHT22;37835;53.256;6.456;2023-08-06T08:17:55;17.50;99.90
51765;DHT22;37835;53.256;6.456;2023-08-06T08:20:21;17.50;99.90
51765;DHT22;37835;53.256;6.456;2023-08-06T08:22:47;17.60;99.90
51765;DHT22;37835;53.256;6.456;2023-08-06T08:25:13;17.60;99.90
51765;DHT22;37835;53.256;6.456;2023-08-06T08:27:38;17.70;99.90
51765;DHT22;37835;53.256;6.456;2023-08-06T08:30:05;17.70;99.90
51765;DHT22;37835;53.256;6.456;2023-08-06T08:32:30;17.80;99.90
51765;DHT22;37835;53.256;6.456;2023-08-06T08:34:56;17.80;99.90
51765;DHT22;37835;53.256;6.456;2023-08-06T08:37:22;17.90;99.90
51765;DHT22;37835;53.256;6.456;2023-08-06T08:39:48;17.90;99.90
51765;DHT22;37835;53.256;6.456;2023-08-06T08:42:15;18.00;99.90
51765;DHT22;37835;53.256;6.456;2023-08-06T08:44:42;18.00;99.90
51765;DHT22;37835;53.256;6.456;2023-08-06T08:47:08;18.10;99.90
51765;DHT22;37835;53.256;6.456;2023-08-06T08:49:36;18.20;99.90
51765;DHT22;37835;53.256;6.456;2023-08-06T08:52:03;18.20;99.90
51765;DHT22;37835;53.256;6.456;2023-08-06T08:54:32;18.30;99.90
51765;DHT22;37835;53.256;6.456;2023-08-06T08:56:58;18.40;99.90
51765;DHT22;37835;53.256;6.456;2023-08-06T08:59:24;18.40;99.90
51765;DHT22;37835;53.256;6.456;2023-08-06T09:01:50;18.50;99.90
51765;DHT22;37835;53.256;6.456;2023-08-06T09:04:17;18.50;99.90
51765;DHT22;37835;53.256;6.456;2023-08-06T09:06:49;18.60;99.90
51765;DHT22;37835;53.256;6.456;2023-08-06T09:09:22;18.70;99.90
51765;DHT22;37835;53.256;6.456;2023-08-06T09:11:51;18.70;99.90
51765;DHT22;37835;53.256;6.456;2023-08-06T09:14:17;18.80;99.90
51765;DHT22;37835;53.256;6.456;2023-08-06T09:16:43;18.80;99.90
51765;DHT22;37835;53.256;6.456;2023-08-06T09:19:13;18.80;99.90
51765;DHT22;37835;53.256;6.456;2023-08-06T09:21:41;18.80;99.90
51765;DHT22;37835;53.256;6.456;2023-08-06T09:24:12;18.90;99.90
51765;DHT22;37835;53.256;6.456;2023-08-06T09:26:40;18.90;99.90
51765;DHT22;37835;53.256;6.456;2023-08-06T09:29:06;19.00;99.90
51765;DHT22;37835;53.256;6.456;2023-08-06T09:31:40;19.00;99.90
51765;DHT22;37835;53.256;6.456;2023-08-06T09:34:25;19.10;99.90
51765;DHT22;37835;53.256;6.456;2023-08-06T09:36:53;19.20;99.90
51765;DHT22;37835;53.256;6.456;2023-08-06T09:39:20;19.20;99.90
51765;DHT22;37835;53.256;6.456;2023-08-06T09:41:47;19.20;99.90
51765;DHT22;37835;53.256;6.456;2023-08-06T09:44:20;19.30;99.90
51765;DHT22;37835;53.256;6.456;2023-08-06T09:46:51;19.40;99.90
51765;DHT22;37835;53.256;6.456;2023-08-06T09:49:19;19.40;99.90
51765;DHT22;37835;53.256;6.456;2023-08-06T09:51:46;19.50;99.90
51765;DHT22;37835;53.256;6.456;2023-08-06T09:54:12;19.50;99.90
51765;DHT22;37835;53.256;6.456;2023-08-06T09:56:40;19.60;99.90
51765;DHT22;37835;53.256;6.456;2023-08-06T09:59:07;19.60;99.90
51765;DHT22;37835;53.256;6.456;2023-08-06T10:01:34;19.60;99.90
51765;DHT22;37835;53.256;6.456;2023-08-06T10:04:01;19.70;99.90
51765;DHT22;37835;53.256;6.456;2023-08-06T10:06:28;19.70;99.90
51765;DHT22;37835;53.256;6.456;2023-08-06T10:08:54;19.80;99.90
51765;DHT22;37835;53.256;6.456;2023-08-06T10:11:22;19.90;99.90
51765;DHT22;37835;53.256;6.456;2023-08-06T10:13:49;19.90;99.90
51765;DHT22;37835;53.256;6.456;2023-08-06T10:16:20;20.00;99.90
51765;DHT22;37835;53.256;6.456;2023-08-06T10:18:47;20.00;99.90
51765;DHT22;37835;53.256;6.456;2023-08-06T10:21:16;20.00;99.90
51765;DHT22;37835;53.256;6.456;2023-08-06T10:23:54;20.00;99.90
51765;DHT22;37835;53.256;6.456;2023-08-06T10:26:20;20.10;99.90
51765;DHT22;37835;53.256;6.456;2023-08-06T10:28:46;20.10;99.90
51765;DHT22;37835;53.256;6.456;2023-08-06T10:31:11;20.10;99.90
51765;DHT22;37835;53.256;6.456;2023-08-06T10:33:45;20.20;99.90
51765;DHT22;37835;53.256;6.456;2023-08-06T10:36:11;20.30;99.90
51765;DHT22;37835;53.256;6.456;2023-08-06T10:38:48;20.30;99.90
51765;DHT22;37835;53.256;6.456;2023-08-06T10:41:32;20.30;99.90
51765;DHT22;37835;53.256;6.456;2023-08-06T10:44:08;20.40;99.90
51765;DHT22;37835;53.256;6.456;2023-08-06T10:46:34;20.40;99.90
51765;DHT22;37835;53.256;6.456;2023-08-06T10:49:03;20.40;99.90
51765;DHT22;37835;53.256;6.456;2023-08-06T10:51:29;20.40;99.90
51765;DHT22;37835;53.256;6.456;2023-08-06T10:53:54;20.40;99.90
51765;DHT22;37835;53.256;6.456;2023-08-06T10:56:22;20.30;99.90
51765;DHT22;37835;53.256;6.456;2023-08-06T10:58:49;20.40;99.90
51765;DHT22;37835;53.256;6.456;2023-08-06T11:01:15;20.40;99.90
51765;DHT22;37835;53.256;6.456;2023-08-06T11:03:42;20.40;99.90
51765;DHT22;37835;53.256;6.456;2023-08-06T11:06:09;20.50;99.90
51765;DHT22;37835;53.256;6.456;2023-08-06T11:08:36;20.50;99.90
51765;DHT22;37835;53.256;6.456;2023-08-06T11:11:13;20.60;99.90
51765;DHT22;37835;53.256;6.456;2023-08-06T11:13:49;20.60;99.90
51765;DHT22;37835;53.256;6.456;2023-08-06T11:16:24;20.70;99.90
51765;DHT22;37835;53.256;6.456;2023-08-06T11:18:51;20.80;99.90
51765;DHT22;37835;53.256;6.456;2023-08-06T11:21:21;20.80;99.90
51765;DHT22;37835;53.256;6.456;2023-08-06T11:23:48;20.90;99.90
51765;DHT22;37835;53.256;6.456;2023-08-06T11:26:19;20.90;99.90
51765;DHT22;37835;53.256;6.456;2023-08-06T11:28:45;20.80;99.90
51765;DHT22;37835;53.256;6.456;2023-08-06T11:31:19;20.80;99.90
51765;DHT22;37835;53.256;6.456;2023-08-06T11:33:44;20.80;99.90
51765;DHT22;37835;53.256;6.456;2023-08-06T11:36:10;20.80;99.90
51765;DHT22;37835;53.256;6.456;2023-08-06T11:38:36;20.90;99.90
51765;DHT22;37835;53.256;6.456;2023-08-06T11:41:01;20.90;99.90
51765;DHT22;37835;53.256;6.456;2023-08-06T11:43:30;21.00;99.90
51765;DHT22;37835;53.256;6.456;2023-08-06T11:45:56;21.00;99.90
51765;DHT22;37835;53.256;6.456;2023-08-06T11:48:22;21.00;99.90
51765;DHT22;37835;53.256;6.456;2023-08-06T11:50:47;21.00;99.90
51765;DHT22;37835;53.256;6.456;2023-08-06T11:53:14;21.00;99.90
51765;DHT22;37835;53.256;6.456;2023-08-06T11:55:40;21.10;99.90
51765;DHT22;37835;53.256;6.456;2023-08-06T11:58:06;21.00;99.90
51765;DHT22;37835;53.256;6.456;2023-08-06T12:00:32;21.10;99.90
51765;DHT22;37835;53.256;6.456;2023-08-06T12:02:57;21.10;99.90
51765;DHT22;37835;53.256;6.456;2023-08-06T12:05:30;21.20;99.90
51765;DHT22;37835;53.256;6.456;2023-08-06T12:07:58;21.20;99.90
51765;DHT22;37835;53.256;6.456;2023-08-06T12:10:28;21.20;99.90
51765;DHT22;37835;53.256;6.456;2023-08-06T12:12:54;21.20;99.90
51765;DHT22;37835;53.256;6.456;2023-08-06T12:15:21;21.10;99.90
51765;DHT22;37835;53.256;6.456;2023-08-06T12:17:47;21.20;99.90
51765;DHT22;37835;53.256;6.456;2023-08-06T12:20:13;21.20;99.90
51765;DHT22;37835;53.256;6.456;2023-08-06T12:22:38;21.20;99.90
51765;DHT22;37835;53.256;6.456;2023-08-06T12:25:10;21.20;99.90
51765;DHT22;37835;53.256;6.456;2023-08-06T12:27:43;21.20;99.90
51765;DHT22;37835;53.256;6.456;2023-08-06T12:30:10;21.30;99.90
51765;DHT22;37835;53.256;6.456;2023-08-06T12:32:36;21.30;99.90
51765;DHT22;37835;53.256;6.456;2023-08-06T12:35:02;21.30;99.90
51765;DHT22;37835;53.256;6.456;2023-08-06T12:37:29;21.30;99.90
51765;DHT22;37835;53.256;6.456;2023-08-06T12:39:55;21.40;99.90
51765;DHT22;37835;53.256;6.456;2023-08-06T12:42:20;21.30;99.90
51765;DHT22;37835;53.256;6.456;2023-08-06T12:44:47;21.20;99.90
51765;DHT22;37835;53.256;6.456;2023-08-06T12:47:13;21.20;99.90
51765;DHT22;37835;53.256;6.456;2023-08-06T12:49:39;21.20;99.90
51765;DHT22;37835;53.256;6.456;2023-08-06T12:52:04;21.10;99.90
51765;DHT22;37835;53.256;6.456;2023-08-06T12:54:32;21.10;99.90
51765;DHT22;37835;53.256;6.456;2023-08-06T12:57:03;21.10;99.90
51765;DHT22;37835;53.256;6.456;2023-08-06T12:59:29;21.10;99.90
51765;DHT22;37835;53.256;6.456;2023-08-06T13:01:54;21.10;99.90
51765;DHT22;37835;53.256;6.456;2023-08-06T13:04:20;21.10;99.90
51765;DHT22;37835;53.256;6.456;2023-08-06T13:06:46;21.00;99.90
51765;DHT22;37835;53.256;6.456;2023-08-06T13:09:12;21.40;99.90
51765;DHT22;37835;53.256;6.456;2023-08-06T13:11:39;21.00;99.90
51765;DHT22;37835;53.256;6.456;2023-08-06T13:16:32;21.10;99.90
51765;DHT22;37835;53.256;6.456;2023-08-06T13:18:57;21.10;99.90
51765;DHT22;37835;53.256;6.456;2023-08-06T13:21:23;21.20;99.90
51765;DHT22;37835;53.256;6.456;2023-08-06T13:23:49;21.30;99.90
51765;DHT22;37835;53.256;6.456;2023-08-06T13:26:14;21.30;99.90
51765;DHT22;37835;53.256;6.456;2023-08-06T13:28:41;21.30;99.90
51765;DHT22;37835;53.256;6.456;2023-08-06T13:31:07;21.30;99.90
51765;DHT22;37835;53.256;6.456;2023-08-06T13:33:33;21.20;99.90
51765;DHT22;37835;53.256;6.456;2023-08-06T13:35:58;21.30;99.90
51765;DHT22;37835;53.256;6.456;2023-08-06T13:38:24;21.30;99.90
51765;DHT22;37835;53.256;6.456;2023-08-06T13:40:49;21.40;99.90
51765;DHT22;37835;53.256;6.456;2023-08-06T13:43:15;21.40;99.90
51765;DHT22;37835;53.256;6.456;2023-08-06T13:45:42;21.50;99.90
51765;DHT22;37835;53.256;6.456;2023-08-06T13:48:08;21.60;99.90
51765;DHT22;37835;53.256;6.456;2023-08-06T13:50:36;21.60;99.90
51765;DHT22;37835;53.256;6.456;2023-08-06T13:53:01;21.60;99.90
51765;DHT22;37835;53.256;6.456;2023-08-06T13:55:27;21.50;99.90
51765;DHT22;37835;53.256;6.456;2023-08-06T13:57:53;21.50;99.90
51765;DHT22;37835;53.256;6.456;2023-08-06T14:00:18;21.60;99.90
51765;DHT22;37835;53.256;6.456;2023-08-06T14:02:44;21.70;99.90
51765;DHT22;37835;53.256;6.456;2023-08-06T14:05:09;21.70;99.90
51765;DHT22;37835;53.256;6.456;2023-08-06T14:07:35;21.70;99.90
51765;DHT22;37835;53.256;6.456;2023-08-06T14:10:01;21.70;99.90
51765;DHT22;37835;53.256;6.456;2023-08-06T14:12:26;21.60;99.90
51765;DHT22;37835;53.256;6.456;2023-08-06T14:14:52;21.60;99.90
51765;DHT22;37835;53.256;6.456;2023-08-06T14:17:17;21.60;99.90
51765;DHT22;37835;53.256;6.456;2023-08-06T14:19:43;21.60;99.90
51765;DHT22;37835;53.256;6.456;2023-08-06T14:22:09;21.60;99.90
51765;DHT22;37835;53.256;6.456;2023-08-06T14:24:34;21.60;99.90
51765;DHT22;37835;53.256;6.456;2023-08-06T14:27:00;21.70;99.90
51765;DHT22;37835;53.256;6.456;2023-08-06T14:29:25;21.70;99.90
51765;DHT22;37835;53.256;6.456;2023-08-06T14:31:51;21.80;99.90
51765;DHT22;37835;53.256;6.456;2023-08-06T14:34:17;21.80;99.90
51765;DHT22;37835;53.256;6.456;2023-08-06T14:36:42;21.80;99.90
51765;DHT22;37835;53.256;6.456;2023-08-06T14:39:14;21.90;99.90
51765;DHT22;37835;53.256;6.456;2023-08-06T14:41:40;21.90;99.90
51765;DHT22;37835;53.256;6.456;2023-08-06T14:44:05;21.90;99.90
51765;DHT22;37835;53.256;6.456;2023-08-06T14:46:32;21.90;99.90
51765;DHT22;37835;53.256;6.456;2023-08-06T14:48:58;22.00;99.90
51765;DHT22;37835;53.256;6.456;2023-08-06T14:51:24;22.00;99.90
51765;DHT22;37835;53.256;6.456;2023-08-06T14:53:49;22.00;99.90
51765;DHT22;37835;53.256;6.456;2023-08-06T14:56:15;21.90;99.90
51765;DHT22;37835;53.256;6.456;2023-08-06T14:58:41;21.90;99.90
51765;DHT22;37835;53.256;6.456;2023-08-06T15:01:07;21.90;99.90
51765;DHT22;37835;53.256;6.456;2023-08-06T15:03:33;21.90;99.90
51765;DHT22;37835;53.256;6.456;2023-08-06T15:05:59;22.00;99.90
51765;DHT22;37835;53.256;6.456;2023-08-06T15:08:24;22.00;99.90
51765;DHT22;37835;53.256;6.456;2023-08-06T15:10:53;21.90;99.90
51765;DHT22;37835;53.256;6.456;2023-08-06T15:13:19;22.00;99.90
51765;DHT22;37835;53.256;6.456;2023-08-06T15:15:49;22.00;99.90
51765;DHT22;37835;53.256;6.456;2023-08-06T15:18:15;22.00;99.90
51765;DHT22;37835;53.256;6.456;2023-08-06T15:20:41;22.10;99.90
51765;DHT22;37835;53.256;6.456;2023-08-06T15:23:07;22.10;99.90
51765;DHT22;37835;53.256;6.456;2023-08-06T15:25:32;22.00;99.90
51765;DHT22;37835;53.256;6.456;2023-08-06T15:27:58;22.00;99.90
51765;DHT22;37835;53.256;6.456;2023-08-06T15:30:23;22.00;99.90
51765;DHT22;37835;53.256;6.456;2023-08-06T15:32:49;22.00;99.90
51765;DHT22;37835;53.256;6.456;2023-08-06T15:35:14;22.00;99.90